Aurora, CO (80011)

10:15 AM MDT on August 27, 2014 (GMT -0600)
Montbello | Change Station
CLOSE
Current Station
Personal Weather Station
Location: Denver, CO
Elevation: 5364 ft
Nearby Weather Stations

Elev 5364 ft 39.78 °N, 104.82 °W | Updated 48 minutes ago

Mostly Cloudy
Mostly Cloudy
64.0 °F
Feels Like 64.0 °F
N
1.8
Wind Variable Wind from SW
Gusts 3.6 mph

Today
High -- | Low -- °F
--% Chance of Precip.
Yesterday
High -- | Low -- °F
Precip. -- in
6:22 AM 7:37 PM
Waxing Crescent, 4% visible
Pressure 30.04 in
Visibility 10.0 miles
Clouds Few 7000 ft
Mostly Cloudy 11000 ft
Mostly Cloudy 22000 ft
Dew Point 53 °F
Humidity 68%
Rainfall 1.20 in
Snow Depth Not available.
UV 3 out of 12
Pollen 8.10 out of 12
Ozone Good
PM2.5 Good
Flu Activity Not available.
METAR KBKF 271558Z 31004KT 10SM FEW070 BKN110 BKN220 17/13 A3021 RMK AO2A SLP171 T01740131

More Conditions Fewer Conditions

Pressure 30.04 in
Visibility 10.0 miles
Clouds Few 7000 ft
Mostly Cloudy 11000 ft
Mostly Cloudy 22000 ft
Dew Point 53 °F
Humidity 68%
Rainfall 1.20 in
Snow Depth Not available.
UV 3 out of 12
Pollen 8.10 out of 12
Ozone Good
PM2.5 Good
Flu Activity Not available.
METAR KBKF 271558Z 31004KT 10SM FEW070 BKN110 BKN220 17/13 A3021 RMK AO2A SLP171 T01740131

More Conditions Fewer Conditions

10-Day Weather Forecast

Almanac

Astronomy

Aug. 27, 2014 Rise Set
Actual Time 6:22 AM MDT 7:37 PM MDT
Civil Twilight 5:54 AM MDT 8:05 PM MDT
Nautical Twilight 5:21 AM MDT 8:39 PM MDT
Astronomical Twilight 4:45 AM MDT 9:14 PM MDT
Moon 8:20 AM MDT 8:31 PM MDT
Length of Visible Light 14h 11m
Length of Day
13h 15m
Tomorrow will be 2m 28s shorter.
Waxing Crescent, 4% of the Moon is Illuminated
Today
Waxing Crescent
Sep 2
First Quarter
Sep 8
Full
Sep 15
Last Quarter
Sep 24
New

Today's Extremes

State Highs State Lows

Community

WunderPhotos

Upload Photos

1,747,721 photos uploaded!

Nearby

Air Quality

  Air Quality AQ Index Pollutant
Yesterday Good
OZONE
Yesterday Good
PM10
Current Good
PM2.5
Current Good
OZONE
Wednesday Moderate
OZONE
Wednesday Good
PM2.5

Snow Depth

Station Depth Elevation
Echo Lake 0 in 10600 ft
Niwot 1 in 9910 ft
University Camp 0 in 10300 ft
Copeland Lake 0 in 8600 ft
Berthoud Summit 1 in 11300 ft

Earthquake Activity

City Distance Mag. Time & Date
No recent earthquake activity has been reported nearby.
Minimum magnitude displayed is 2.5.

Coastal Water Temperatures

Place Temperature
No Stations Reporting

Nearby Weather Stations